createdAt,value
2023-01-12T00:01:55.104Z,14.55
2023-01-12T00:04:21.657Z,17.52
2023-01-12T00:06:48.233Z,26.17
2023-01-12T00:09:14.836Z,13.45
2023-01-12T00:11:41.267Z,17.08
2023-01-12T00:14:09.332Z,14.50
2023-01-12T00:16:39.435Z,16.73
2023-01-12T00:19:11.823Z,18.35
2023-01-12T00:21:57.023Z,15.52
2023-01-12T00:24:25.735Z,15.88
2023-01-12T00:26:53.431Z,15.57
2023-01-12T00:29:20.400Z,16.55
2023-01-12T00:31:47.159Z,12.50
2023-01-12T00:34:14.500Z,19.50
2023-01-12T00:36:41.426Z,22.90
2023-01-12T00:39:08.296Z,14.32
2023-01-12T00:41:55.725Z,19.70
2023-01-12T00:44:41.361Z,34.08
2023-01-12T00:47:07.900Z,34.55
2023-01-12T00:49:35.475Z,13.00
2023-01-12T00:52:02.456Z,14.45
2023-01-12T00:54:28.999Z,19.13
2023-01-12T00:56:56.469Z,14.35
2023-01-12T00:59:23.135Z,19.35
2023-01-12T01:01:50.137Z,16.88
2023-01-12T01:04:16.671Z,10.43
2023-01-12T01:06:43.136Z,10.48
2023-01-12T01:09:09.605Z,8.55
2023-01-12T01:11:36.256Z,14.48
2023-01-12T01:14:02.910Z,15.93
2023-01-12T01:16:30.110Z,17.23
2023-01-12T01:18:57.058Z,16.20
2023-01-12T01:21:23.526Z,17.30
2023-01-12T01:23:49.905Z,20.27
2023-01-12T01:26:22.317Z,15.55
2023-01-12T01:28:48.914Z,12.88
2023-01-12T01:31:21.584Z,16.23
2023-01-12T01:33:48.741Z,10.20
2023-01-12T01:36:16.184Z,14.30
2023-01-12T01:38:45.125Z,16.13
2023-01-12T01:41:24.736Z,15.85
2023-01-12T01:43:53.306Z,14.10
2023-01-12T01:46:41.076Z,19.90
2023-01-12T01:49:26.416Z,14.10
2023-01-12T01:51:58.212Z,11.98
2023-01-12T01:54:25.203Z,12.38
2023-01-12T01:56:56.503Z,10.30
2023-01-12T01:59:28.187Z,12.23
2023-01-12T02:04:22.288Z,13.98
2023-01-12T02:06:49.360Z,15.80
2023-01-12T02:09:21.219Z,10.25
2023-01-12T02:12:07.353Z,19.52
2023-01-12T02:14:52.351Z,15.35
2023-01-12T02:17:46.589Z,8.10
2023-01-12T02:20:31.305Z,8.95
2023-01-12T02:23:22.662Z,14.13
2023-01-12T02:26:07.288Z,29.05
2023-01-12T02:28:45.759Z,11.05
2023-01-12T02:31:37.921Z,15.10
2023-01-12T02:34:18.731Z,8.95
2023-01-12T02:36:50.598Z,10.48
2023-01-12T02:39:43.831Z,9.70
2023-01-12T02:42:28.609Z,16.35
2023-01-12T02:45:27.173Z,8.65
2023-01-12T02:47:58.835Z,13.10
2023-01-12T02:53:01.473Z,19.63
2023-01-12T02:55:30.003Z,13.02
2023-01-12T02:57:57.259Z,15.90
2023-01-12T03:00:24.049Z,12.30
2023-01-12T03:02:50.624Z,16.27
2023-01-12T03:05:17.015Z,12.60
2023-01-12T03:07:55.347Z,12.65
2023-01-12T03:10:50.700Z,13.88
2023-01-12T03:13:19.163Z,13.95
2023-01-12T03:15:49.847Z,10.93
2023-01-12T03:18:34.252Z,13.77
2023-01-12T03:21:16.912Z,10.48
2023-01-12T03:23:59.431Z,14.20
2023-01-12T03:26:28.359Z,13.00
2023-01-12T03:29:03.583Z,11.80
2023-01-12T03:31:30.166Z,14.88
2023-01-12T03:33:56.723Z,12.10
2023-01-12T03:36:41.645Z,10.55
2023-01-12T03:39:27.287Z,14.25
2023-01-12T03:42:04.412Z,11.10
2023-01-12T03:44:53.608Z,10.18
2023-01-12T03:47:24.932Z,10.43
2023-01-12T03:49:57.574Z,9.68
2023-01-12T03:52:25.747Z,7.65
2023-01-12T03:54:56.705Z,15.70
2023-01-12T03:57:23.547Z,15.57
2023-01-12T03:59:49.958Z,10.27
2023-01-12T04:02:16.549Z,23.25
2023-01-12T04:04:42.964Z,16.42
2023-01-12T04:07:09.431Z,8.43
2023-01-12T04:09:35.881Z,6.15
2023-01-12T04:12:11.062Z,14.23
2023-01-12T04:14:38.975Z,8.98
2023-01-12T04:17:06.295Z,20.23
2023-01-12T04:19:32.743Z,13.85
2023-01-12T04:22:17.894Z,8.55
2023-01-12T04:24:44.306Z,7.78
2023-01-12T04:27:10.883Z,10.45
2023-01-12T04:29:37.293Z,12.98
2023-01-12T04:32:05.121Z,11.23
2023-01-12T04:34:31.542Z,9.75
2023-01-12T04:36:58.019Z,10.00
2023-01-12T04:39:24.431Z,10.55
2023-01-12T04:41:50.851Z,15.48
2023-01-12T04:44:17.346Z,10.00
2023-01-12T04:46:43.747Z,12.00
2023-01-12T04:49:10.144Z,8.60
2023-01-12T04:51:36.528Z,13.00
2023-01-12T04:54:03.027Z,11.25
2023-01-12T04:56:31.167Z,9.25
2023-01-12T04:59:00.092Z,10.38
2023-01-12T05:01:28.831Z,7.38
2023-01-12T05:03:58.047Z,10.82
2023-01-12T05:06:24.625Z,12.25
2023-01-12T05:09:09.289Z,10.18
2023-01-12T05:11:35.735Z,8.27
2023-01-12T05:14:02.407Z,18.33
2023-01-12T05:16:28.953Z,8.90
2023-01-12T05:18:55.699Z,16.83
2023-01-12T05:21:23.812Z,15.95
2023-01-12T05:23:52.497Z,12.73
2023-01-12T05:26:19.721Z,9.00
2023-01-12T05:28:50.576Z,8.25
2023-01-12T05:31:17.543Z,9.05
2023-01-12T05:33:44.014Z,8.02
2023-01-12T05:36:13.161Z,6.85
2023-01-12T05:38:40.028Z,7.45
2023-01-12T05:41:07.577Z,7.00
2023-01-12T05:43:52.320Z,6.97
2023-01-12T05:46:23.685Z,10.27
2023-01-12T05:48:51.247Z,16.13
2023-01-12T05:51:18.176Z,8.95
2023-01-12T05:53:44.915Z,12.00
2023-01-12T05:56:21.087Z,10.82
2023-01-12T05:58:55.135Z,10.38
2023-01-12T06:01:22.478Z,9.02
2023-01-12T06:03:54.668Z,10.05
2023-01-12T06:06:22.653Z,10.80
2023-01-12T06:08:52.156Z,11.75
2023-01-12T06:11:38.090Z,7.78
2023-01-12T06:14:05.531Z,10.82
2023-01-12T06:16:32.233Z,6.43
2023-01-12T06:18:58.715Z,5.80
2023-01-12T06:21:25.527Z,15.73
2023-01-12T06:23:51.956Z,6.63
2023-01-12T06:26:18.410Z,12.80
2023-01-12T06:28:44.943Z,9.65
2023-01-12T06:31:13.212Z,7.72
2023-01-12T06:33:40.166Z,7.78
2023-01-12T06:36:07.321Z,8.63
2023-01-12T06:38:35.089Z,7.03
2023-01-12T06:41:03.074Z,14.07
2023-01-12T06:43:29.479Z,11.85
2023-01-12T06:45:56.008Z,10.65
2023-01-12T06:48:25.685Z,7.18
2023-01-12T06:51:01.890Z,10.05
2023-01-12T06:53:28.337Z,10.80
2023-01-12T06:55:54.745Z,4.68
2023-01-12T06:58:21.252Z,8.18
2023-01-12T07:00:47.745Z,6.35
2023-01-12T07:03:18.830Z,10.27
2023-01-12T07:05:45.596Z,7.45
2023-01-12T07:08:15.950Z,10.38
2023-01-12T07:10:42.973Z,6.93
2023-01-12T07:13:09.396Z,10.27
2023-01-12T07:15:36.033Z,5.65
2023-01-12T07:18:02.488Z,9.95
2023-01-12T07:20:29.000Z,7.22
2023-01-12T07:22:55.882Z,5.47
2023-01-12T07:25:23.073Z,5.75
2023-01-12T07:27:57.703Z,10.30
2023-01-12T07:30:25.602Z,7.10
2023-01-12T07:32:52.502Z,11.38
2023-01-12T07:35:19.348Z,10.60
2023-01-12T07:37:50.325Z,8.10
2023-01-12T07:40:18.005Z,9.25
2023-01-12T07:42:44.517Z,11.55
2023-01-12T07:45:11.959Z,8.52
2023-01-12T07:47:38.640Z,10.23
2023-01-12T07:50:05.826Z,12.05
2023-01-12T07:52:32.419Z,6.15
2023-01-12T07:54:58.838Z,7.53
2023-01-12T07:57:25.284Z,8.10
2023-01-12T07:59:51.689Z,9.43
2023-01-12T08:02:19.240Z,8.25
2023-01-12T08:04:46.425Z,8.38
2023-01-12T08:07:13.732Z,6.60
2023-01-12T08:09:40.192Z,7.55
2023-01-12T08:12:06.794Z,9.73
2023-01-12T08:14:39.399Z,9.75
2023-01-12T08:17:14.685Z,7.53
2023-01-12T08:19:47.274Z,10.02
2023-01-12T08:22:19.092Z,12.05
2023-01-12T08:24:52.098Z,8.80
2023-01-12T08:27:22.589Z,6.28
2023-01-12T08:29:52.048Z,6.75
2023-01-12T08:32:19.004Z,6.90
2023-01-12T08:34:48.259Z,9.25
2023-01-12T08:37:18.038Z,12.35
2023-01-12T08:39:46.019Z,9.63
2023-01-12T08:42:12.847Z,6.63
2023-01-12T08:44:39.518Z,3.90
2023-01-12T08:47:14.447Z,7.07
2023-01-12T08:49:40.967Z,7.60
2023-01-12T08:52:07.340Z,10.23
2023-01-12T08:54:33.979Z,10.10
2023-01-12T08:57:00.348Z,4.85
2023-01-12T08:59:26.756Z,9.60
2023-01-12T09:01:53.337Z,6.65
2023-01-12T09:04:19.883Z,5.32
2023-01-12T09:06:47.062Z,9.07
2023-01-12T09:09:16.741Z,6.75
2023-01-12T09:11:44.342Z,5.53
2023-01-12T09:14:12.096Z,7.38
2023-01-12T09:16:38.980Z,6.97
2023-01-12T09:19:05.611Z,7.57
2023-01-12T09:21:32.867Z,7.18
2023-01-12T09:23:59.435Z,7.28
2023-01-12T09:26:33.784Z,7.32
2023-01-12T09:29:02.216Z,7.78
2023-01-12T09:31:30.328Z,8.48
2023-01-12T09:33:57.952Z,5.93
2023-01-12T09:36:29.856Z,6.50
2023-01-12T09:38:58.084Z,6.78
2023-01-12T09:41:54.368Z,6.10
2023-01-12T09:44:47.280Z,4.43
2023-01-12T09:47:26.291Z,6.68
2023-01-12T09:50:16.248Z,12.27
2023-01-12T09:52:42.745Z,11.85
2023-01-12T09:55:20.782Z,8.40
2023-01-12T09:57:53.554Z,8.77
2023-01-12T10:00:21.054Z,13.10
2023-01-12T10:02:54.582Z,6.00
2023-01-12T10:05:39.871Z,8.65
2023-01-12T10:08:16.193Z,8.18
2023-01-12T10:10:54.629Z,6.25
2023-01-12T10:13:22.342Z,9.43
2023-01-12T10:16:02.656Z,9.93
2023-01-12T10:18:42.279Z,7.75
2023-01-12T10:21:10.927Z,8.65
2023-01-12T10:23:37.687Z,12.25
2023-01-12T10:26:24.628Z,8.93
2023-01-12T10:28:54.571Z,4.32
2023-01-12T10:31:25.160Z,10.32
2023-01-12T10:34:21.129Z,9.88
2023-01-12T10:36:49.792Z,2.75
2023-01-12T10:39:39.114Z,15.07
2023-01-12T10:42:44.132Z,15.13
2023-01-12T10:45:20.779Z,7.93
2023-01-12T10:47:49.361Z,7.88
2023-01-12T10:50:29.873Z,9.07
2023-01-12T10:53:13.694Z,6.50
2023-01-12T10:55:42.818Z,8.13
2023-01-12T10:58:30.849Z,6.43
2023-01-12T11:00:57.983Z,5.28
2023-01-12T11:03:33.806Z,11.07
2023-01-12T11:06:30.743Z,9.90
2023-01-12T11:08:57.613Z,6.93
2023-01-12T11:11:29.794Z,9.70
2023-01-12T11:13:59.958Z,5.45
2023-01-12T11:16:29.147Z,8.38
2023-01-12T11:19:05.192Z,5.55
2023-01-12T11:21:36.953Z,8.15
2023-01-12T11:27:16.531Z,5.20
2023-01-12T11:30:18.713Z,12.73
2023-01-12T11:35:58.319Z,6.82
2023-01-12T11:38:38.922Z,9.80
2023-01-12T11:41:10.120Z,6.13
2023-01-12T11:43:56.207Z,3.75
2023-01-12T11:46:41.048Z,2.80
2023-01-12T11:49:41.022Z,6.10
2023-01-12T11:52:10.721Z,5.68
2023-01-12T11:54:39.159Z,5.35
2023-01-12T11:57:43.341Z,8.23
2023-01-12T12:00:16.146Z,6.32
2023-01-12T12:03:11.722Z,10.43
2023-01-12T12:06:07.772Z,12.75
2023-01-12T12:08:50.749Z,4.97
2023-01-12T12:11:42.001Z,8.18
2023-01-12T12:14:30.951Z,8.95
2023-01-12T12:17:20.528Z,4.43
2023-01-12T12:19:58.964Z,7.05
2023-01-12T12:22:58.372Z,2.38
2023-01-12T12:25:54.760Z,4.68
2023-01-12T12:28:48.413Z,4.75
2023-01-12T12:31:44.315Z,3.65
2023-01-12T12:34:10.695Z,11.48
2023-01-12T12:36:55.398Z,4.95
2023-01-12T12:39:44.815Z,1.83
2023-01-12T12:42:48.673Z,3.45
2023-01-12T12:45:22.165Z,4.07
2023-01-12T12:48:23.922Z,3.47
2023-01-12T12:51:03.934Z,1.13
2023-01-12T12:53:43.607Z,1.65
2023-01-12T12:56:16.723Z,2.63
2023-01-12T12:58:49.977Z,2.45
2023-01-12T13:01:25.462Z,2.78
2023-01-12T13:03:55.141Z,1.02
2023-01-12T13:06:22.912Z,0.85
2023-01-12T13:08:52.515Z,0.60
2023-01-12T13:11:20.029Z,1.92
2023-01-12T13:14:05.959Z,2.15
2023-01-12T13:16:32.531Z,4.18
2023-01-12T13:18:58.928Z,2.10
2023-01-12T13:21:57.839Z,1.42
2023-01-12T13:24:41.918Z,1.50
2023-01-12T13:27:46.016Z,3.15
2023-01-12T13:30:52.463Z,2.67
2023-01-12T13:33:26.573Z,1.15
2023-01-12T13:35:53.022Z,1.05
2023-01-12T13:38:38.922Z,0.65
2023-01-12T13:41:46.760Z,2.50
2023-01-12T13:44:27.280Z,43.80
2023-01-12T13:47:03.958Z,3.80
2023-01-12T13:49:33.883Z,1.40
2023-01-12T13:52:03.965Z,2.30
2023-01-12T13:54:31.628Z,0.98
2023-01-12T13:57:06.650Z,0.65
2023-01-12T13:59:34.766Z,0.88
2023-01-12T14:02:01.454Z,1.10
2023-01-12T14:04:46.496Z,0.65
2023-01-12T14:07:20.579Z,0.52
2023-01-12T14:10:00.855Z,0.63
2023-01-12T14:12:57.027Z,1.67
2023-01-12T14:16:00.816Z,0.73
2023-01-12T14:18:40.219Z,0.63
2023-01-12T14:21:19.744Z,1.55
2023-01-12T14:23:46.156Z,1.80
2023-01-12T14:26:22.205Z,1.73
2023-01-12T14:28:51.186Z,1.85
2023-01-12T14:31:30.388Z,2.40
2023-01-12T14:33:59.421Z,3.03
2023-01-12T14:36:29.463Z,0.98
2023-01-12T14:38:59.164Z,1.95
2023-01-12T14:41:47.023Z,1.88
2023-01-12T14:44:39.550Z,0.88
2023-01-12T14:47:06.887Z,3.22
2023-01-12T14:49:35.889Z,1.38
2023-01-12T14:52:22.040Z,2.05
2023-01-12T14:54:48.593Z,0.85
2023-01-12T14:57:36.226Z,2.25
2023-01-12T15:00:05.752Z,5.05
2023-01-12T15:02:35.134Z,48.53
2023-01-12T15:05:10.752Z,1.55
2023-01-12T15:07:41.801Z,2.20
2023-01-12T15:10:14.221Z,0.32
2023-01-12T15:12:45.458Z,3.05
2023-01-12T15:15:19.666Z,0.30
2023-01-12T15:18:05.200Z,0.45
2023-01-12T15:20:59.173Z,3.25
2023-01-12T15:23:55.393Z,0.52
2023-01-12T15:26:22.150Z,1.98
2023-01-12T15:28:49.416Z,0.65
2023-01-12T15:31:27.966Z,0.57
2023-01-12T15:33:56.079Z,1.75
2023-01-12T15:36:22.788Z,0.90
2023-01-12T15:38:49.439Z,0.80
2023-01-12T15:41:43.217Z,0.60
2023-01-12T15:44:17.985Z,2.35
2023-01-12T15:46:44.817Z,1.27
2023-01-12T15:49:15.587Z,0.50
2023-01-12T15:51:51.701Z,0.50
2023-01-12T15:54:20.196Z,0.55
2023-01-12T15:56:47.964Z,0.60
2023-01-12T15:59:14.765Z,0.63
2023-01-12T16:01:46.769Z,0.73
2023-01-12T16:04:42.070Z,2.17
2023-01-12T16:07:05.435Z,0.47
2023-01-12T16:09:32.738Z,25.85
2023-01-12T16:11:59.447Z,6.78
2023-01-12T16:14:26.173Z,2.40
2023-01-12T16:16:52.839Z,0.77
2023-01-12T16:19:21.641Z,0.47
2023-01-12T16:21:48.227Z,1.67
2023-01-12T16:24:15.161Z,0.80
2023-01-12T16:26:41.654Z,0.98
2023-01-12T16:29:08.596Z,1.20
2023-01-12T16:31:38.101Z,3.10
2023-01-12T16:34:05.871Z,3.20
2023-01-12T16:36:33.540Z,1.15
2023-01-12T16:39:00.365Z,3.38
2023-01-12T16:41:26.890Z,1.35
2023-01-12T16:43:54.517Z,1.63
2023-01-12T16:46:21.088Z,2.05
2023-01-12T16:48:47.621Z,0.80
2023-01-12T16:51:15.962Z,1.33
2023-01-12T16:53:42.976Z,2.60
2023-01-12T16:56:14.974Z,2.88
2023-01-12T16:58:47.681Z,3.88
2023-01-12T17:01:18.068Z,4.50
2023-01-12T17:03:44.958Z,3.53
2023-01-12T17:06:15.261Z,3.20
2023-01-12T17:08:41.778Z,4.40
2023-01-12T17:11:10.698Z,2.90
2023-01-12T17:13:37.855Z,2.13
2023-01-12T17:16:10.357Z,2.08
2023-01-12T17:18:38.682Z,0.52
2023-01-12T17:21:09.272Z,2.05
2023-01-12T17:23:36.250Z,0.95
2023-01-12T17:26:04.312Z,0.95
2023-01-12T17:28:31.424Z,0.98
2023-01-12T17:30:58.197Z,2.90
2023-01-12T17:33:25.012Z,0.90
2023-01-12T17:35:51.671Z,2.67
2023-01-12T17:38:18.375Z,1.27
2023-01-12T17:40:44.898Z,1.25
2023-01-12T17:43:14.584Z,0.73
2023-01-12T17:45:42.719Z,2.45
2023-01-12T17:48:11.893Z,1.98
2023-01-12T17:50:40.384Z,2.58
2023-01-12T17:53:09.303Z,4.10
2023-01-12T17:55:43.534Z,1.42
2023-01-12T17:58:14.433Z,1.67
2023-01-12T18:00:40.935Z,0.82
2023-01-12T18:03:07.610Z,1.40
2023-01-12T18:05:34.235Z,0.60
2023-01-12T18:08:00.713Z,1.80
2023-01-12T18:10:30.176Z,0.73
2023-01-12T18:12:56.685Z,1.10
2023-01-12T18:15:23.945Z,1.90
2023-01-12T18:17:50.559Z,1.73
2023-01-12T18:20:17.080Z,6.97
2023-01-12T18:22:43.672Z,0.68
2023-01-12T18:25:10.355Z,1.40
2023-01-12T18:27:36.853Z,1.10
2023-01-12T18:30:03.679Z,0.98
2023-01-12T18:32:30.410Z,0.60
2023-01-12T18:34:58.104Z,1.63
2023-01-12T18:37:24.661Z,1.70
2023-01-12T18:39:51.178Z,3.58
2023-01-12T18:42:36.217Z,1.40
2023-01-12T18:45:04.515Z,2.53
2023-01-12T18:47:50.047Z,2.00
2023-01-12T18:50:35.573Z,2.22
2023-01-12T18:53:21.079Z,3.03
2023-01-12T18:55:48.446Z,0.95
2023-01-12T18:58:14.948Z,0.90
2023-01-12T19:00:41.721Z,3.17
2023-01-12T19:03:08.559Z,3.58
2023-01-12T19:05:42.280Z,1.27
2023-01-12T19:08:27.837Z,0.85
2023-01-12T19:10:55.067Z,0.63
2023-01-12T19:13:40.416Z,2.40
2023-01-12T19:16:26.122Z,2.70
2023-01-12T19:18:53.454Z,0.70
2023-01-12T19:21:38.578Z,1.58
2023-01-12T19:24:23.710Z,0.60
2023-01-12T19:27:09.196Z,2.30
2023-01-12T19:29:35.859Z,0.70
2023-01-12T19:32:02.900Z,3.00
2023-01-12T19:34:29.656Z,1.75
2023-01-12T19:36:56.184Z,2.88
2023-01-12T19:39:39.314Z,2.22
2023-01-12T19:42:25.432Z,1.10
2023-01-12T19:44:51.830Z,3.22
2023-01-12T19:47:18.262Z,5.68
2023-01-12T19:49:44.732Z,3.53
2023-01-12T19:52:11.202Z,2.90
2023-01-12T19:54:37.716Z,2.28
2023-01-12T19:57:04.187Z,4.70
2023-01-12T19:59:31.028Z,1.40
2023-01-12T20:01:57.552Z,1.75
2023-01-12T20:04:23.984Z,1.13
2023-01-12T20:06:53.127Z,1.70
2023-01-12T20:09:19.792Z,1.20
2023-01-12T20:11:52.778Z,0.80
2023-01-12T20:14:19.512Z,0.93
2023-01-12T20:16:46.743Z,0.90
2023-01-12T20:19:14.004Z,0.77
2023-01-12T20:21:40.732Z,2.25
2023-01-12T20:24:07.395Z,2.35
2023-01-12T20:26:33.872Z,2.40
2023-01-12T20:29:00.324Z,1.35
2023-01-12T20:31:26.830Z,2.80
2023-01-12T20:33:53.449Z,1.85
2023-01-12T20:36:20.370Z,1.00
2023-01-12T20:38:47.376Z,0.70
2023-01-12T20:41:13.911Z,1.08
2023-01-12T20:43:40.475Z,0.75
2023-01-12T20:46:11.755Z,0.77
2023-01-12T20:48:43.804Z,2.03
2023-01-12T20:51:12.854Z,1.10
2023-01-12T20:53:39.630Z,1.88
2023-01-12T20:56:06.381Z,0.77
2023-01-12T20:58:32.991Z,1.58
2023-01-12T21:01:00.329Z,1.25
2023-01-12T21:03:27.598Z,1.00
2023-01-12T21:05:55.076Z,1.55
2023-01-12T21:08:21.526Z,1.15
2023-01-12T21:10:51.066Z,1.60
2023-01-12T21:13:18.732Z,3.70
2023-01-12T21:15:45.383Z,0.70
2023-01-12T21:18:12.400Z,1.45
2023-01-12T21:20:43.010Z,1.40
2023-01-12T21:23:09.697Z,0.88
2023-01-12T21:25:41.481Z,0.57
2023-01-12T21:30:35.005Z,0.90
2023-01-12T21:33:01.484Z,2.22
2023-01-12T21:35:27.958Z,6.63
2023-01-12T21:37:54.397Z,1.35
2023-01-12T21:40:27.824Z,3.03
2023-01-12T21:43:09.568Z,3.08
2023-01-12T21:45:39.878Z,0.95
2023-01-12T21:48:07.189Z,0.40
2023-01-12T21:50:34.005Z,2.53
2023-01-12T21:53:02.727Z,2.75
2023-01-12T21:55:29.871Z,2.35
2023-01-12T21:57:56.347Z,1.23
2023-01-12T22:00:23.335Z,1.75
2023-01-12T22:02:51.135Z,1.00
2023-01-12T22:05:18.260Z,1.13
2023-01-12T22:07:45.118Z,0.55
2023-01-12T22:10:20.918Z,0.60
2023-01-12T22:12:55.589Z,0.65
2023-01-12T22:15:23.384Z,0.90
2023-01-12T22:17:51.221Z,0.68
2023-01-12T22:20:18.288Z,0.93
2023-01-12T22:22:44.950Z,1.98
2023-01-12T22:25:13.904Z,0.50
2023-01-12T22:27:44.262Z,1.13
2023-01-12T22:30:13.708Z,0.52
2023-01-12T22:32:41.330Z,1.63
2023-01-12T22:35:08.730Z,2.65
2023-01-12T22:37:36.464Z,0.82
2023-01-12T22:40:04.804Z,0.70
2023-01-12T22:42:49.835Z,1.67
2023-01-12T22:45:16.325Z,1.10
2023-01-12T22:47:47.946Z,0.40
2023-01-12T22:50:14.865Z,0.80
2023-01-12T22:52:41.730Z,0.85
2023-01-12T22:55:08.624Z,0.45
2023-01-12T22:57:35.261Z,2.22
2023-01-12T23:00:01.730Z,2.00
2023-01-12T23:02:47.881Z,1.20
2023-01-12T23:05:14.463Z,0.60
2023-01-12T23:07:40.926Z,0.70
2023-01-12T23:10:08.444Z,1.58
2023-01-12T23:12:34.960Z,1.25
2023-01-12T23:15:01.405Z,1.08
2023-01-12T23:17:27.979Z,0.98
2023-01-12T23:19:54.445Z,1.35
2023-01-12T23:22:21.453Z,1.00
2023-01-12T23:24:48.315Z,0.65
2023-01-12T23:27:14.835Z,1.30
2023-01-12T23:29:41.354Z,0.55
2023-01-12T23:32:07.953Z,1.48
2023-01-12T23:34:34.405Z,0.60
2023-01-12T23:37:00.864Z,0.93
2023-01-12T23:39:27.345Z,23.50
2023-01-12T23:41:53.777Z,4.80
2023-01-12T23:44:20.334Z,0.50
2023-01-12T23:46:46.903Z,0.47
2023-01-12T23:49:13.367Z,2.60
2023-01-12T23:51:40.441Z,0.40
2023-01-12T23:54:07.704Z,0.60
2023-01-12T23:56:34.702Z,1.60
2023-01-12T23:59:01.500Z,0.40
